»·PEaware :: JUS326 KJAC-KBOI

JUS326 :: KJAC-KBOI

FLIGHT INFORMATION

Flight Status: Arrived
Operator:
USA Jet
More flights by this operator :: More flights under this callsign
Pilot: Erik S. (3779)
Aircraft: BOEING 737-300
(B733)
More flights by this aircraft type
Origin: KJAC Jackson Hole
United States
Destination: KBOI Boise Air Terminal/Gowen
United States
More flights between these airports :: More routes between these airports
Route: +ALPIN2 IDA REAPS KOURT3
File this flight plan on PilotEdge
Remarks:
Altitude:
(Current/Filed)
30,000ft
Speed:
(Current/Filed)
400kts
Departed: 14-Feb-18 09:25 AM
Arrived: 14-Feb-18 10:22 AM
Distance/Time
Traveled:
238nm/0:56
Distance/Time
To Go:
Arrived

Flight Plot

Page will automatically refresh every two minutes.

Flight plan parsing failed; only flown route is shown


Map Options




Map Legend


Flown Route
Filed Route
Departure Airport
Arrival Airport
Navaid (VOR, NDB)
Fix

Horizontal Profiles

Position Reports

Time Latitude Longitude Heading Altitude Ground
Speed
14-Feb-18 09:19 43.603520 -110.737167 109 6458ft 0kts
14-Feb-18 09:20 43.603520 -110.737167 109 6458ft 0kts
14-Feb-18 09:21 43.603520 -110.737167 109 6458ft 0kts
14-Feb-18 09:22 43.603520 -110.737167 109 6458ft 0kts
14-Feb-18 09:23 43.603520 -110.737167 109 6458ft 0kts
14-Feb-18 09:24 43.603520 -110.737167 109 6458ft 0kts
14-Feb-18 09:25 43.603520 -110.737167 109 6458ft 0kts
14-Feb-18 09:26 43.603520 -110.737167 109 6458ft 0kts
14-Feb-18 09:27 43.603520 -110.737167 109 6458ft 0kts
14-Feb-18 09:28 43.603520 -110.737167 109 6458ft 0kts
14-Feb-18 09:29 43.603506 -110.737105 107 6458ft 1kts
14-Feb-18 09:30 43.608622 -110.735531 20 6458ft 34kts
14-Feb-18 09:31 43.615307 -110.733624 252 6458ft 14kts
14-Feb-18 09:32 43.590553 -110.745840 199 6789ft 176kts
14-Feb-18 09:33 43.543877 -110.770443 203 8964ft 195kts
14-Feb-18 09:34 43.490276 -110.801736 203 10642ft 228kts
14-Feb-18 09:35 43.430185 -110.836539 205 12665ft 244kts
14-Feb-18 09:36 43.369216 -110.878460 208 14737ft 251kts
14-Feb-18 09:37 43.302423 -110.926753 208 15466ft 311kts
14-Feb-18 09:38 43.228957 -111.000309 249 16740ft 345kts
14-Feb-18 09:39 43.255640 -111.124653 290 18790ft 357kts
14-Feb-18 09:40 43.293756 -111.251945 288 20492ft 367kts
14-Feb-18 09:41 43.331092 -111.384002 288 22040ft 377kts
14-Feb-18 09:42 43.369129 -111.519709 288 23480ft 385kts
14-Feb-18 09:43 43.403204 -111.642047 288 24633ft 393kts
14-Feb-18 09:44 43.439574 -111.774244 288 26342ft 384kts
14-Feb-18 09:45 43.475466 -111.905567 288 27606ft 384kts
14-Feb-18 09:46 43.512125 -112.042230 282 28801ft 383kts
14-Feb-18 09:47 43.499186 -112.185175 256 29777ft 381kts
14-Feb-18 09:48 43.474897 -112.329326 256 30040ft 399kts
14-Feb-18 09:49 43.449207 -112.481817 256 30039ft 420kts
14-Feb-18 09:50 43.422189 -112.640742 256 30090ft 433kts
14-Feb-18 09:51 43.395497 -112.796349 256 30120ft 437kts
14-Feb-18 09:52 43.367729 -112.956795 256 30109ft 428kts
14-Feb-18 09:53 43.340426 -113.113252 255 30062ft 421kts
14-Feb-18 09:54 43.313605 -113.268900 255 30085ft 421kts
14-Feb-18 09:55 43.287492 -113.416038 255 30078ft 413kts
14-Feb-18 09:56 43.260606 -113.564741 255 30080ft 415kts
14-Feb-18 09:57 43.232738 -113.717582 255 30083ft 414kts
14-Feb-18 09:58 43.205444 -113.866107 255 30084ft 414kts
14-Feb-18 09:59 43.177277 -114.018166 255 30083ft 414kts
14-Feb-18 10:00 43.176580 -114.171185 285 30079ft 422kts
14-Feb-18 10:01 43.208589 -114.324934 282 30084ft 419kts
14-Feb-18 10:02 43.238423 -114.479109 282 30096ft 417kts
14-Feb-18 10:03 43.266509 -114.626906 281 28560ft 397kts
14-Feb-18 10:04 43.293876 -114.771524 282 25691ft 392kts
14-Feb-18 10:05 43.320072 -114.910159 281 23398ft 364kts
14-Feb-18 10:06 43.345172 -115.043928 281 21405ft 356kts
14-Feb-18 10:07 43.369275 -115.172865 280 19387ft 344kts
14-Feb-18 10:08 43.388237 -115.276140 280 17748ft 336kts
14-Feb-18 10:10 43.435328 -115.533582 280 13925ft 299kts
14-Feb-18 10:11 43.460501 -115.637135 289 12979ft 288kts
14-Feb-18 10:12 43.491953 -115.733672 289 11561ft 262kts
14-Feb-18 10:13 43.519977 -115.820389 288 10405ft 235kts
14-Feb-18 10:14 43.546699 -115.903352 288 9303ft 237kts
14-Feb-18 10:15 43.573461 -115.985715 288 8199ft 238kts
14-Feb-18 10:16 43.600542 -116.068225 290 7996ft 238kts
14-Feb-18 10:17 43.629258 -116.149646 293 8010ft 236kts
14-Feb-18 10:18 43.660602 -116.229080 293 7744ft 237kts
14-Feb-18 10:19 43.691176 -116.308890 293 6998ft 235kts
14-Feb-18 10:20 43.721109 -116.388705 293 6809ft 235kts
14-Feb-18 10:21 43.749596 -116.468637 281 5992ft 230kts
14-Feb-18 10:22 43.717162 -116.531376 198 6022ft 212kts
14-Feb-18 10:23 43.670224 -116.505262 130 6109ft 192kts
14-Feb-18 10:24 43.648241 -116.443228 116 5082ft 159kts
14-Feb-18 10:25 43.628401 -116.388538 120 4183ft 159kts
14-Feb-18 10:26 43.607703 -116.334789 120 4312ft 152kts
14-Feb-18 10:27 43.589531 -116.287471 120 3421ft 134kts
14-Feb-18 10:28 43.572692 -116.243619 117 3034ft 129kts
14-Feb-18 10:29 43.564213 -116.217158 2 2878ft 4kts
14-Feb-18 10:30 43.567103 -116.217641 4 2878ft 16kts
14-Feb-18 10:31 43.568388 -116.217174 24 2878ft 0kts

Navigation Log

Ident Type
Flight plan parsing failed, navigation log unavailable